createdAt,value
2022-10-11T00:02:29.794Z,2.80
2022-10-11T00:05:08.667Z,5.10
2022-10-11T00:07:45.911Z,3.70
2022-10-11T00:10:24.706Z,3.00
2022-10-11T00:13:02.638Z,3.23
2022-10-11T00:15:40.945Z,3.60
2022-10-11T00:18:18.970Z,3.43
2022-10-11T00:21:03.000Z,3.97
2022-10-11T00:23:41.858Z,3.70
2022-10-11T00:26:19.888Z,3.10
2022-10-11T00:28:58.091Z,3.03
2022-10-11T00:31:36.666Z,2.80
2022-10-11T00:34:17.082Z,2.53
2022-10-11T00:36:54.663Z,2.87
2022-10-11T00:39:33.174Z,3.30
2022-10-11T00:42:15.350Z,3.73
2022-10-11T00:44:52.367Z,3.33
2022-10-11T00:47:30.590Z,3.10
2022-10-11T00:50:11.530Z,3.10
2022-10-11T00:52:55.678Z,3.20
2022-10-11T00:55:36.831Z,2.97
2022-10-11T00:58:14.786Z,3.00
2022-10-11T01:00:54.023Z,3.20
2022-10-11T01:03:38.246Z,2.37
2022-10-11T01:06:15.861Z,3.33
2022-10-11T01:08:54.082Z,2.23
2022-10-11T01:11:42.514Z,3.57
2022-10-11T01:14:36.793Z,2.57
2022-10-11T01:17:23.335Z,2.80
2022-10-11T01:20:20.199Z,2.40
2022-10-11T01:23:35.825Z,2.10
2022-10-11T01:26:39.465Z,3.13
2022-10-11T01:29:42.077Z,3.53
2022-10-11T01:32:29.352Z,3.60
2022-10-11T01:35:15.414Z,2.73
2022-10-11T01:38:01.774Z,2.97
2022-10-11T01:40:45.861Z,2.77
2022-10-11T01:43:25.599Z,3.10
2022-10-11T01:46:04.764Z,3.17
2022-10-11T01:48:55.278Z,3.60
2022-10-11T01:51:47.458Z,2.77
2022-10-11T01:54:56.627Z,3.67
2022-10-11T01:57:43.695Z,3.07
2022-10-11T02:00:28.728Z,2.90
2022-10-11T02:03:21.423Z,3.90
2022-10-11T02:06:22.499Z,4.03
2022-10-11T02:09:22.111Z,3.10
2022-10-11T02:12:07.029Z,4.07
2022-10-11T02:14:49.317Z,2.90
2022-10-11T02:17:34.246Z,2.73
2022-10-11T02:20:17.582Z,3.17
2022-10-11T02:23:13.386Z,2.57
2022-10-11T02:25:53.525Z,2.90
2022-10-11T02:28:35.636Z,3.00
2022-10-11T02:31:15.217Z,2.37
2022-10-11T02:34:21.933Z,3.07
2022-10-11T02:37:08.851Z,3.37
2022-10-11T02:39:51.868Z,3.10
2022-10-11T02:42:37.910Z,2.77
2022-10-11T02:50:00.034Z,3.37
2022-10-11T02:52:38.069Z,3.97
2022-10-11T02:55:16.619Z,3.43
2022-10-11T02:57:54.504Z,3.10
2022-10-11T03:00:33.269Z,4.73
2022-10-11T03:03:11.073Z,3.40
2022-10-11T03:05:49.263Z,3.03
2022-10-11T03:08:27.766Z,2.43
2022-10-11T03:11:05.757Z,3.30
2022-10-11T03:13:43.898Z,3.50
2022-10-11T03:16:22.099Z,3.13
2022-10-11T03:19:00.348Z,2.73
2022-10-11T03:21:38.787Z,3.07
2022-10-11T03:24:16.790Z,3.80
2022-10-11T03:26:55.388Z,4.00
2022-10-11T03:29:33.244Z,2.80
2022-10-11T03:32:11.811Z,3.00
2022-10-11T03:34:49.713Z,2.80
2022-10-11T03:37:28.272Z,2.77
2022-10-11T03:40:08.349Z,3.20
2022-10-11T03:42:45.981Z,3.30
2022-10-11T03:45:24.290Z,3.33
2022-10-11T03:48:03.300Z,3.10
2022-10-11T03:50:40.718Z,3.10
2022-10-11T03:53:18.903Z,2.70
2022-10-11T03:55:57.593Z,4.30
2022-10-11T03:58:35.430Z,3.90
2022-10-11T04:01:13.685Z,4.60
2022-10-11T04:03:55.654Z,4.73
2022-10-11T04:06:33.338Z,5.90
2022-10-11T04:09:11.687Z,4.50
2022-10-11T04:11:49.692Z,3.67
2022-10-11T04:14:28.065Z,3.10
2022-10-11T04:17:06.432Z,3.90
2022-10-11T04:19:44.354Z,3.47
2022-10-11T04:22:22.606Z,5.00
2022-10-11T04:25:00.870Z,4.63
2022-10-11T04:27:39.212Z,3.90
2022-10-11T04:30:17.544Z,3.93
2022-10-11T04:32:55.540Z,4.13
2022-10-11T04:35:33.758Z,4.87
2022-10-11T04:38:11.929Z,4.23
2022-10-11T04:40:50.286Z,3.40
2022-10-11T04:43:28.430Z,3.40
2022-10-11T04:46:07.986Z,3.43
2022-10-11T04:48:46.638Z,4.13
2022-10-11T04:51:25.579Z,3.80
2022-10-11T04:54:02.966Z,3.57
2022-10-11T04:56:41.145Z,3.87
2022-10-11T04:59:19.442Z,3.60
2022-10-11T05:01:57.714Z,2.90
2022-10-11T05:04:35.813Z,3.57
2022-10-11T05:07:14.215Z,3.27
2022-10-11T05:09:52.349Z,3.13
2022-10-11T05:12:30.594Z,3.10
2022-10-11T05:15:09.262Z,3.77
2022-10-11T05:17:46.962Z,4.20
2022-10-11T05:20:25.183Z,3.30
2022-10-11T05:23:03.406Z,3.30
2022-10-11T05:25:41.684Z,3.57
2022-10-11T05:28:19.951Z,3.90
2022-10-11T05:30:58.532Z,3.43
2022-10-11T05:33:36.749Z,2.90
2022-10-11T05:36:15.303Z,3.20
2022-10-11T05:38:52.730Z,4.10
2022-10-11T05:41:31.137Z,3.23
2022-10-11T05:44:09.237Z,3.40
2022-10-11T05:46:47.471Z,3.97
2022-10-11T05:49:25.731Z,3.53
2022-10-11T05:52:04.048Z,2.90
2022-10-11T05:54:42.266Z,3.50
2022-10-11T05:57:20.389Z,3.50
2022-10-11T05:59:58.622Z,3.60
2022-10-11T06:02:36.805Z,2.97
2022-10-11T06:05:15.597Z,3.77
2022-10-11T06:07:53.318Z,3.03
2022-10-11T06:10:32.189Z,4.90
2022-10-11T06:13:09.779Z,4.70
2022-10-11T06:16:11.345Z,3.50
2022-10-11T06:19:11.227Z,4.70
2022-10-11T06:22:06.492Z,3.83
2022-10-11T06:25:03.418Z,4.10
2022-10-11T06:27:58.305Z,3.60
2022-10-11T06:30:56.939Z,3.53
2022-10-11T06:33:51.644Z,2.80
2022-10-11T06:36:46.438Z,3.80
2022-10-11T06:39:41.820Z,2.70
2022-10-11T06:42:42.624Z,3.27
2022-10-11T06:45:40.249Z,2.90
2022-10-11T06:48:39.950Z,2.57
2022-10-11T06:51:31.447Z,3.10
2022-10-11T06:54:23.488Z,3.33
2022-10-11T06:57:18.430Z,3.23
2022-10-11T07:00:14.371Z,3.33
2022-10-11T07:03:15.114Z,3.03
2022-10-11T07:06:18.989Z,2.60
2022-10-11T07:09:19.771Z,2.70
2022-10-11T07:12:11.750Z,2.37
2022-10-11T07:15:07.874Z,2.60
2022-10-11T07:18:04.533Z,3.37
2022-10-11T07:21:01.923Z,2.90
2022-10-11T07:24:05.374Z,3.53
2022-10-11T07:26:56.932Z,2.40
2022-10-11T07:30:03.076Z,3.13
2022-10-11T07:32:58.512Z,3.00
2022-10-11T07:35:51.080Z,2.60
2022-10-11T07:38:47.569Z,3.13
2022-10-11T07:41:45.660Z,3.23
2022-10-11T07:44:38.245Z,3.23
2022-10-11T07:47:38.114Z,2.80
2022-10-11T07:50:34.269Z,2.80
2022-10-11T07:53:43.289Z,3.23
2022-10-11T07:56:34.973Z,3.97
2022-10-11T07:59:39.142Z,3.37
2022-10-11T08:02:30.729Z,3.10
2022-10-11T08:05:24.755Z,2.73
2022-10-11T08:08:19.389Z,2.80
2022-10-11T08:11:23.402Z,2.87
2022-10-11T08:14:19.399Z,3.03
2022-10-11T08:17:11.940Z,2.70
2022-10-11T08:20:04.746Z,2.60
2022-10-11T08:23:00.516Z,2.92
2022-10-11T08:25:56.593Z,2.95
2022-10-11T08:28:52.361Z,3.10
2022-10-11T08:31:44.778Z,2.77
2022-10-11T08:34:45.719Z,3.38
2022-10-11T08:37:37.489Z,3.33
2022-10-11T08:40:32.915Z,2.97
2022-10-11T08:43:40.617Z,3.23
2022-10-11T08:46:56.915Z,2.83
2022-10-11T08:50:00.689Z,3.37
2022-10-11T08:53:05.909Z,3.10
2022-10-11T08:55:50.859Z,2.83
2022-10-11T08:59:04.578Z,2.90
2022-10-11T09:02:43.607Z,3.13
2022-10-11T09:05:30.987Z,3.70
2022-10-11T09:08:34.653Z,2.90
2022-10-11T09:11:33.021Z,3.38
2022-10-11T09:14:23.485Z,2.75
2022-10-11T09:17:11.728Z,3.28
2022-10-11T09:19:55.942Z,3.00
2022-10-11T09:22:51.866Z,2.88
2022-10-11T09:25:41.915Z,3.22
2022-10-11T09:28:44.086Z,2.67
2022-10-11T09:31:11.476Z,2.78
2022-10-11T09:33:44.029Z,2.70
2022-10-11T09:39:10.185Z,3.28
2022-10-11T09:42:03.502Z,3.83
2022-10-11T09:44:35.567Z,2.80
2022-10-11T09:47:03.318Z,2.80
2022-10-11T09:49:40.657Z,3.30
2022-10-11T09:52:17.229Z,3.57
2022-10-11T09:54:52.135Z,2.87
2022-10-11T09:57:23.657Z,2.97
2022-10-11T10:00:02.379Z,3.07
2022-10-11T10:03:26.377Z,2.43
2022-10-11T10:06:06.825Z,3.50
2022-10-11T10:08:34.803Z,2.50
2022-10-11T10:11:07.979Z,2.07
2022-10-11T10:13:40.622Z,2.60
2022-10-11T10:16:11.710Z,2.77
2022-10-11T10:18:50.790Z,3.03
2022-10-11T10:21:29.655Z,2.77
2022-10-11T10:23:59.923Z,2.90
2022-10-11T10:26:27.320Z,2.47
2022-10-11T10:29:09.535Z,2.40
2022-10-11T10:32:12.965Z,2.90
2022-10-11T10:34:41.465Z,3.00
2022-10-11T10:37:25.237Z,3.30
2022-10-11T10:39:56.338Z,3.23
2022-10-11T10:42:22.999Z,3.30
2022-10-11T10:44:54.954Z,3.13
2022-10-11T10:47:46.167Z,3.03
2022-10-11T10:50:21.565Z,2.60
2022-10-11T10:53:12.024Z,3.17
2022-10-11T10:55:44.309Z,3.03
2022-10-11T10:58:29.486Z,2.70
2022-10-11T11:01:02.163Z,2.97
2022-10-11T11:03:32.185Z,2.27
2022-10-11T11:06:06.384Z,2.67
2022-10-11T11:08:53.195Z,3.20
2022-10-11T11:11:37.380Z,2.30
2022-10-11T11:14:18.653Z,2.93
2022-10-11T11:16:56.214Z,3.17
2022-10-11T11:19:29.978Z,3.10
2022-10-11T11:22:14.885Z,2.63
2022-10-11T11:25:05.722Z,3.03
2022-10-11T11:28:10.058Z,3.40
2022-10-11T11:30:41.301Z,2.80
2022-10-11T11:33:46.359Z,3.17
2022-10-11T11:36:23.407Z,2.60
2022-10-11T11:38:56.750Z,2.70
2022-10-11T11:41:27.506Z,2.40
2022-10-11T11:44:22.764Z,2.83
2022-10-11T11:47:04.355Z,2.97
2022-10-11T11:49:36.036Z,2.87
2022-10-11T11:52:05.491Z,3.40
2022-10-11T11:54:47.340Z,3.73
2022-10-11T11:57:34.333Z,3.23
2022-10-11T12:00:13.369Z,4.30
2022-10-11T12:02:50.282Z,3.80
2022-10-11T12:05:22.045Z,3.60
2022-10-11T12:07:56.277Z,3.10
2022-10-11T12:10:27.936Z,2.50
2022-10-11T12:13:06.678Z,3.90
2022-10-11T12:15:34.107Z,3.30
2022-10-11T12:18:04.384Z,2.53
2022-10-11T12:20:41.460Z,3.20
2022-10-11T12:23:29.922Z,4.30
2022-10-11T12:26:16.109Z,4.20
2022-10-11T12:28:43.022Z,3.40
2022-10-11T12:31:20.702Z,3.67
2022-10-11T12:33:47.161Z,3.17
2022-10-11T12:36:32.291Z,4.23
2022-10-11T12:39:18.214Z,2.17
2022-10-11T12:41:47.516Z,4.47
2022-10-11T12:44:23.996Z,2.60
2022-10-11T12:46:50.462Z,4.27
2022-10-11T12:49:36.275Z,2.70
2022-10-11T12:52:22.450Z,3.00
2022-10-11T12:55:22.785Z,3.17
2022-10-11T12:58:26.883Z,2.73
2022-10-11T13:00:56.950Z,2.50
2022-10-11T13:03:34.585Z,2.30
2022-10-11T13:06:24.989Z,2.50
2022-10-11T13:09:04.441Z,2.63
2022-10-11T13:11:35.222Z,2.77
2022-10-11T13:14:17.489Z,3.20
2022-10-11T13:16:49.887Z,2.10
2022-10-11T13:19:17.269Z,2.57
2022-10-11T13:21:51.454Z,2.50
2022-10-11T13:24:19.330Z,2.90
2022-10-11T13:26:49.059Z,2.77
2022-10-11T13:29:18.716Z,3.00
2022-10-11T13:31:48.069Z,3.23
2022-10-11T13:34:17.671Z,2.50
2022-10-11T13:36:46.430Z,2.90
2022-10-11T13:39:31.602Z,3.00
2022-10-11T13:42:00.093Z,3.07
2022-10-11T13:44:27.197Z,2.90
2022-10-11T13:46:54.527Z,2.30
2022-10-11T13:49:27.402Z,2.60
2022-10-11T13:52:00.238Z,2.57
2022-10-11T13:54:54.514Z,3.60
2022-10-11T13:57:29.277Z,3.53
2022-10-11T13:59:56.069Z,2.80
2022-10-11T14:02:24.746Z,3.10
2022-10-11T14:04:51.379Z,5.93
2022-10-11T14:07:33.445Z,6.87
2022-10-11T14:10:00.133Z,4.87
2022-10-11T14:12:31.998Z,3.70
2022-10-11T14:15:01.468Z,3.40
2022-10-11T14:17:44.259Z,2.90
2022-10-11T14:20:11.690Z,3.30
2022-10-11T14:22:38.752Z,2.83
2022-10-11T14:25:05.817Z,2.80
2022-10-11T14:27:32.739Z,3.07
2022-10-11T14:30:24.089Z,2.67
2022-10-11T14:32:49.022Z,4.93
2022-10-11T14:35:18.870Z,3.90
2022-10-11T14:37:45.924Z,3.10
2022-10-11T14:40:16.007Z,4.67
2022-10-11T14:42:43.346Z,2.93
2022-10-11T14:45:10.342Z,3.33
2022-10-11T14:47:42.621Z,2.83
2022-10-11T14:50:34.878Z,2.17
2022-10-11T14:53:02.966Z,2.57
2022-10-11T14:55:31.050Z,2.40
2022-10-11T14:57:58.058Z,3.00
2022-10-11T15:00:28.002Z,2.57
2022-10-11T15:02:55.890Z,2.23
2022-10-11T15:05:27.748Z,2.87
2022-10-11T15:07:57.795Z,2.00
2022-10-11T15:10:26.463Z,2.93
2022-10-11T15:12:55.013Z,2.53
2022-10-11T15:15:25.011Z,3.10
2022-10-11T15:17:55.113Z,3.10
2022-10-11T15:20:24.148Z,2.97
2022-10-11T15:22:51.846Z,3.10
2022-10-11T15:25:18.781Z,2.80
2022-10-11T15:27:45.756Z,3.13
2022-10-11T15:30:17.270Z,2.83
2022-10-11T15:32:45.542Z,2.17
2022-10-11T15:35:12.446Z,2.63
2022-10-11T15:37:39.208Z,2.87
2022-10-11T15:40:16.453Z,2.80
2022-10-11T15:42:43.642Z,2.80
2022-10-11T15:45:10.595Z,2.63
2022-10-11T15:47:37.623Z,2.90
2022-10-11T15:50:14.014Z,3.93
2022-10-11T15:52:40.675Z,2.63
2022-10-11T15:55:07.568Z,3.00
2022-10-11T15:57:34.130Z,3.23
2022-10-11T16:00:00.649Z,3.30
2022-10-11T16:02:27.783Z,2.60
2022-10-11T16:04:54.314Z,3.40
2022-10-11T16:07:20.879Z,2.60
2022-10-11T16:09:47.405Z,3.10
2022-10-11T16:12:14.008Z,3.10
2022-10-11T16:14:44.903Z,2.70
2022-10-11T16:17:13.674Z,3.70
2022-10-11T16:19:40.258Z,2.93
2022-10-11T16:22:06.797Z,3.60
2022-10-11T16:24:33.453Z,3.07
2022-10-11T16:27:00.975Z,2.80
2022-10-11T16:29:27.653Z,4.17
2022-10-11T16:31:54.437Z,2.87
2022-10-11T16:34:20.970Z,4.97
2022-10-11T16:36:47.867Z,3.40
2022-10-11T16:39:17.233Z,7.00
2022-10-11T16:41:45.188Z,5.63
2022-10-11T16:44:13.870Z,5.10
2022-10-11T16:46:41.120Z,4.40
2022-10-11T16:49:07.947Z,4.80
2022-10-11T16:51:34.528Z,5.00
2022-10-11T16:54:01.871Z,4.87
2022-10-11T16:56:28.579Z,6.40
2022-10-11T16:58:56.102Z,5.13
2022-10-11T17:01:23.565Z,5.07
2022-10-11T17:03:51.320Z,4.80
2022-10-11T17:06:18.903Z,7.50
2022-10-11T17:08:45.521Z,7.10
2022-10-11T17:11:12.157Z,6.57
2022-10-11T17:13:38.786Z,5.80
2022-10-11T17:16:05.988Z,5.77
2022-10-11T17:18:32.744Z,5.93
2022-10-11T17:21:04.818Z,5.40
2022-10-11T17:23:32.939Z,7.30
2022-10-11T17:26:05.256Z,6.47
2022-10-11T17:28:36.280Z,7.23
2022-10-11T17:31:04.753Z,5.33
2022-10-11T17:33:32.422Z,7.93
2022-10-11T17:36:00.686Z,7.50
2022-10-11T17:38:27.603Z,7.77
2022-10-11T17:41:02.338Z,8.33
2022-10-11T17:43:29.533Z,9.60
2022-10-11T17:45:57.275Z,11.23
2022-10-11T17:48:24.470Z,13.43
2022-10-11T17:50:51.046Z,20.53
2022-10-11T17:53:18.145Z,24.43
2022-10-11T17:55:45.379Z,22.40
2022-10-11T17:58:12.786Z,22.03
2022-10-11T18:00:40.098Z,18.83
2022-10-11T18:03:06.867Z,19.30
2022-10-11T18:05:33.786Z,18.37
2022-10-11T18:08:00.574Z,21.13
2022-10-11T18:10:27.617Z,18.60
2022-10-11T18:12:54.823Z,17.90
2022-10-11T18:15:21.668Z,18.90
2022-10-11T18:17:48.242Z,15.67
2022-10-11T18:20:14.827Z,14.93
2022-10-11T18:22:41.358Z,12.37
2022-10-11T18:25:08.303Z,10.60
2022-10-11T18:27:34.898Z,7.03
2022-10-11T18:30:02.703Z,3.93
2022-10-11T18:32:29.232Z,4.87
2022-10-11T18:34:57.828Z,5.30
2022-10-11T18:37:24.589Z,4.83
2022-10-11T18:39:51.304Z,5.80
2022-10-11T18:42:17.899Z,5.70
2022-10-11T18:44:44.734Z,4.80
2022-10-11T18:47:11.300Z,4.87
2022-10-11T18:49:38.427Z,4.87
2022-10-11T18:52:05.526Z,5.30
2022-10-11T18:54:32.502Z,5.37
2022-10-11T18:56:59.043Z,4.73
2022-10-11T18:59:25.644Z,6.33
2022-10-11T19:01:52.572Z,6.63
2022-10-11T19:04:19.922Z,5.03
2022-10-11T19:06:48.904Z,5.87
2022-10-11T19:09:24.271Z,6.23
2022-10-11T19:11:56.341Z,6.37
2022-10-11T19:14:26.050Z,6.27
2022-10-11T19:16:53.689Z,8.83
2022-10-11T19:19:23.895Z,10.10
2022-10-11T19:21:51.382Z,55.57
2022-10-11T19:24:21.993Z,69.97
2022-10-11T19:26:49.929Z,47.90
2022-10-11T19:29:19.723Z,55.63
2022-10-11T19:31:49.122Z,82.87
2022-10-11T19:34:16.206Z,128.00
2022-10-11T19:36:43.125Z,278.47
2022-10-11T19:39:13.214Z,355.03
2022-10-11T19:41:40.233Z,280.07
2022-10-11T19:44:07.122Z,306.40
2022-10-11T19:49:24.631Z,363.17
2022-10-11T19:51:55.332Z,284.47
2022-10-11T19:54:22.733Z,256.57
2022-10-11T19:56:50.497Z,216.97
2022-10-11T19:59:17.294Z,223.87
2022-10-11T20:01:49.319Z,212.10
2022-10-11T20:04:39.428Z,182.50
2022-10-11T20:07:03.174Z,174.97
2022-10-11T20:09:30.864Z,185.00
2022-10-11T20:11:58.372Z,178.03
2022-10-11T20:14:25.567Z,163.37
2022-10-11T20:16:52.983Z,157.37
2022-10-11T20:19:19.994Z,150.80
2022-10-11T20:21:47.415Z,160.77
2022-10-11T20:24:15.370Z,157.60
2022-10-11T20:26:41.989Z,159.03
2022-10-11T20:29:08.520Z,129.57
2022-10-11T20:31:41.616Z,126.07
2022-10-11T20:34:11.147Z,127.97
2022-10-11T20:36:37.934Z,113.27
2022-10-11T20:39:06.569Z,100.00
2022-10-11T20:41:39.739Z,94.47
2022-10-11T20:44:07.685Z,91.07
2022-10-11T20:46:37.091Z,108.47
2022-10-11T20:49:10.504Z,93.63
2022-10-11T20:51:38.885Z,76.77
2022-10-11T20:54:05.734Z,77.77
2022-10-11T20:56:34.114Z,82.60
2022-10-11T20:59:01.336Z,73.93
2022-10-11T21:01:31.108Z,68.87
2022-10-11T21:04:00.200Z,65.10
2022-10-11T21:06:27.559Z,64.60
2022-10-11T21:08:55.654Z,61.50
2022-10-11T21:11:25.778Z,54.27
2022-10-11T21:13:56.607Z,41.57
2022-10-11T21:16:23.816Z,29.93
2022-10-11T21:18:55.271Z,24.50
2022-10-11T21:21:25.877Z,19.90
2022-10-11T21:23:56.843Z,26.63
2022-10-11T21:26:23.598Z,24.90
2022-10-11T21:28:51.075Z,32.80
2022-10-11T21:31:19.710Z,27.20
2022-10-11T21:33:46.258Z,20.70
2022-10-11T21:36:16.102Z,14.43
2022-10-11T21:38:43.369Z,16.43
2022-10-11T21:41:15.841Z,13.77
2022-10-11T21:43:42.432Z,11.83
2022-10-11T21:46:19.620Z,10.97
2022-10-11T21:48:47.206Z,7.80
2022-10-11T21:51:17.069Z,8.27
2022-10-11T21:53:43.613Z,7.40
2022-10-11T21:56:10.135Z,7.63
2022-10-11T21:58:36.869Z,6.80
2022-10-11T22:01:03.583Z,6.80
2022-10-11T22:03:30.324Z,8.53
2022-10-11T22:05:57.019Z,5.87
2022-10-11T22:08:23.546Z,5.70
2022-10-11T22:10:57.045Z,6.50
2022-10-11T22:13:25.337Z,6.07
2022-10-11T22:15:52.032Z,6.70
2022-10-11T22:18:19.009Z,7.33
2022-10-11T22:20:45.966Z,6.40
2022-10-11T22:23:12.551Z,8.43
2022-10-11T22:25:39.769Z,8.07
2022-10-11T22:28:07.034Z,8.63
2022-10-11T22:30:33.927Z,7.53
2022-10-11T22:33:00.572Z,10.80
2022-10-11T22:35:27.095Z,11.97
2022-10-11T22:37:53.983Z,13.53
2022-10-11T22:40:20.923Z,13.63
2022-10-11T22:42:47.998Z,14.90
2022-10-11T22:45:15.015Z,15.70
2022-10-11T22:47:41.566Z,16.73
2022-10-11T22:50:08.871Z,14.70
2022-10-11T22:52:35.379Z,14.00
2022-10-11T22:55:02.221Z,14.43
2022-10-11T22:57:29.529Z,16.37
2022-10-11T22:59:56.169Z,15.50
2022-10-11T23:02:23.151Z,19.40
2022-10-11T23:04:49.741Z,18.70
2022-10-11T23:07:16.260Z,20.50
2022-10-11T23:09:42.787Z,20.17
2022-10-11T23:12:09.339Z,19.80
2022-10-11T23:14:35.886Z,16.80
2022-10-11T23:17:02.691Z,15.90
2022-10-11T23:19:29.269Z,15.47
2022-10-11T23:21:55.796Z,15.97
2022-10-11T23:24:22.333Z,15.03
2022-10-11T23:26:49.043Z,16.13
2022-10-11T23:29:15.604Z,15.10
2022-10-11T23:31:42.146Z,13.90
2022-10-11T23:34:08.668Z,13.50
2022-10-11T23:36:35.202Z,12.80
2022-10-11T23:39:01.754Z,11.23
2022-10-11T23:41:29.321Z,12.40
2022-10-11T23:43:57.029Z,11.93
2022-10-11T23:46:23.600Z,11.00
2022-10-11T23:48:50.397Z,9.50
2022-10-11T23:51:16.941Z,9.97
2022-10-11T23:53:43.469Z,9.47
2022-10-11T23:56:11.093Z,9.90
2022-10-11T23:58:38.091Z,9.17
